sensor_id;sensor_type;location;lat;lon;timestamp;pressure;altitude;pressure_sealevel;temperature;humidity
25350;BME280;13302;48.796;11.978;2023-02-28T00:00:16;97470.59;;;3.39;26.46
25350;BME280;13302;48.796;11.978;2023-02-28T00:03:03;97464.06;;;3.35;26.61
25350;BME280;13302;48.796;11.978;2023-02-28T00:05:50;97468.19;;;3.32;26.52
25350;BME280;13302;48.796;11.978;2023-02-28T00:08:38;97471.22;;;3.31;26.50
25350;BME280;13302;48.796;11.978;2023-02-28T00:11:25;97473.13;;;3.30;26.47
25350;BME280;13302;48.796;11.978;2023-02-28T00:14:12;97467.13;;;3.28;26.58
25350;BME280;13302;48.796;11.978;2023-02-28T00:16:59;97465.81;;;3.26;26.56
25350;BME280;13302;48.796;11.978;2023-02-28T00:19:47;97456.25;;;3.23;26.83
25350;BME280;13302;48.796;11.978;2023-02-28T00:22:36;97453.81;;;3.21;26.66
25350;BME280;13302;48.796;11.978;2023-02-28T00:25:24;97445.63;;;3.21;26.76
25350;BME280;13302;48.796;11.978;2023-02-28T00:28:12;97450.53;;;3.19;26.74
25350;BME280;13302;48.796;11.978;2023-02-28T00:30:59;97450.53;;;3.19;26.96
25350;BME280;13302;48.796;11.978;2023-02-28T00:33:48;97454.69;;;3.17;26.75
25350;BME280;13302;48.796;11.978;2023-02-28T00:36:35;97452.22;;;3.15;26.85
25350;BME280;13302;48.796;11.978;2023-02-28T00:39:23;97448.13;;;3.13;26.66
25350;BME280;13302;48.796;11.978;2023-02-28T00:42:10;97450.63;;;3.09;26.85
25350;BME280;13302;48.796;11.978;2023-02-28T00:44:57;97446.00;;;3.10;26.86
25350;BME280;13302;48.796;11.978;2023-02-28T00:47:44;97443.53;;;3.08;26.90
25350;BME280;13302;48.796;11.978;2023-02-28T00:50:33;97441.09;;;3.07;26.80
25350;BME280;13302;48.796;11.978;2023-02-28T00:53:20;97443.81;;;3.07;26.84
25350;BME280;13302;48.796;11.978;2023-02-28T00:56:08;97440.56;;;3.05;26.80
25350;BME280;13302;48.796;11.978;2023-02-28T00:58:55;97436.19;;;3.04;26.70
25350;BME280;13302;48.796;11.978;2023-02-28T01:01:44;97430.22;;;3.02;26.82
25350;BME280;13302;48.796;11.978;2023-02-28T01:04:32;97429.41;;;3.01;26.71
25350;BME280;13302;48.796;11.978;2023-02-28T01:07:20;97431.31;;;3.01;27.05
25350;BME280;13302;48.796;11.978;2023-02-28T01:10:08;97431.91;;;2.98;26.78
25350;BME280;13302;48.796;11.978;2023-02-28T01:12:55;97425.41;;;2.94;26.96
25350;BME280;13302;48.796;11.978;2023-02-28T01:15:50;97418.56;;;2.91;26.96
25350;BME280;13302;48.796;11.978;2023-02-28T01:18:39;97421.03;;;2.93;27.00
25350;BME280;13302;48.796;11.978;2023-02-28T01:21:27;97425.66;;;2.92;26.99
25350;BME280;13302;48.796;11.978;2023-02-28T01:24:14;97421.31;;;2.91;26.95
25350;BME280;13302;48.796;11.978;2023-02-28T01:27:02;97410.69;;;2.90;27.04
25350;BME280;13302;48.796;11.978;2023-02-28T01:29:50;97419.16;;;2.88;27.05
25350;BME280;13302;48.796;11.978;2023-02-28T01:32:37;97411.78;;;2.89;27.08
25350;BME280;13302;48.796;11.978;2023-02-28T01:35:24;97417.47;;;2.92;27.07
25350;BME280;13302;48.796;11.978;2023-02-28T01:38:11;97413.66;;;2.93;27.10
25350;BME280;13302;48.796;11.978;2023-02-28T01:41:16;97412.59;;;2.89;27.04
25350;BME280;13302;48.796;11.978;2023-02-28T01:44:07;97407.97;;;2.90;26.97
25350;BME280;13302;48.796;11.978;2023-02-28T01:46:54;97410.69;;;2.90;27.14
25350;BME280;13302;48.796;11.978;2023-02-28T01:49:41;97402.22;;;2.86;27.24
25350;BME280;13302;48.796;11.978;2023-02-28T01:52:29;97400.91;;;2.84;27.26
25350;BME280;13302;48.796;11.978;2023-02-28T01:55:18;97400.38;;;2.82;27.13
25350;BME280;13302;48.796;11.978;2023-02-28T01:58:07;97404.72;;;2.83;27.12
25350;BME280;13302;48.796;11.978;2023-02-28T02:00:55;97398.75;;;2.81;27.20
25350;BME280;13302;48.796;11.978;2023-02-28T02:03:44;97398.22;;;2.78;27.28
25350;BME280;13302;48.796;11.978;2023-02-28T02:06:40;97396.06;;;2.75;27.21
25350;BME280;13302;48.796;11.978;2023-02-28T02:09:29;97397.16;;;2.74;27.35
25350;BME280;13302;48.796;11.978;2023-02-28T02:15:44;97407.03;;;2.70;27.33
25350;BME280;13302;48.796;11.978;2023-02-28T02:18:46;97398.31;;;2.68;27.43
25350;BME280;13302;48.796;11.978;2023-02-28T02:25:10;97400.00;;;2.64;27.37
25350;BME280;13302;48.796;11.978;2023-02-28T02:37:48;97403.03;;;2.58;27.91
25350;BME280;13302;48.796;11.978;2023-02-28T02:40:44;97410.72;;;2.56;27.82
25350;BME280;13302;48.796;11.978;2023-02-28T02:43:38;97402.53;;;2.56;27.88
25350;BME280;13302;48.796;11.978;2023-02-28T02:46:35;97406.91;;;2.57;27.84
25350;BME280;13302;48.796;11.978;2023-02-28T02:49:28;97405.78;;;2.58;27.76
25350;BME280;13302;48.796;11.978;2023-02-28T02:52:18;97407.69;;;2.57;27.93
25350;BME280;13302;48.796;11.978;2023-02-28T02:55:08;97408.50;;;2.58;28.02
25350;BME280;13302;48.796;11.978;2023-02-28T02:58:01;97402.22;;;2.57;28.06
25350;BME280;13302;48.796;11.978;2023-02-28T03:00:53;97403.84;;;2.58;28.12
25350;BME280;13302;48.796;11.978;2023-02-28T03:03:42;97406.59;;;2.58;28.19
25350;BME280;13302;48.796;11.978;2023-02-28T03:06:30;97409.03;;;2.60;28.15
25350;BME280;13302;48.796;11.978;2023-02-28T03:09:17;97407.41;;;2.59;27.86
25350;BME280;13302;48.796;11.978;2023-02-28T03:12:09;97409.63;;;2.57;28.10
25350;BME280;13302;48.796;11.978;2023-02-28T03:15:09;97412.03;;;2.58;28.13
25350;BME280;13302;48.796;11.978;2023-02-28T03:18:08;97412.03;;;2.58;28.20
25350;BME280;13302;48.796;11.978;2023-02-28T03:21:05;97409.03;;;2.60;28.29
25350;BME280;13302;48.796;11.978;2023-02-28T03:24:08;97408.75;;;2.61;28.13
25350;BME280;13302;48.796;11.978;2023-02-28T03:27:08;97399.75;;;2.61;28.10
25350;BME280;13302;48.796;11.978;2023-02-28T03:30:04;97405.22;;;2.61;28.10
25350;BME280;13302;48.796;11.978;2023-02-28T03:32:58;97399.75;;;2.61;28.18
25350;BME280;13302;48.796;11.978;2023-02-28T03:35:54;97403.28;;;2.61;28.07
25350;BME280;13302;48.796;11.978;2023-02-28T03:38:47;97396.22;;;2.60;28.19
25350;BME280;13302;48.796;11.978;2023-02-28T03:41:46;97401.94;;;2.59;28.21
25350;BME280;13302;48.796;11.978;2023-02-28T03:47:31;97401.72;;;2.55;28.43
25350;BME280;13302;48.796;11.978;2023-02-28T03:50:39;97401.72;;;2.55;28.17
25350;BME280;13302;48.796;11.978;2023-02-28T03:53:32;97404.72;;;2.54;28.47
25350;BME280;13302;48.796;11.978;2023-02-28T03:56:26;97407.16;;;2.55;28.50
25350;BME280;13302;48.796;11.978;2023-02-28T03:59:39;97406.34;;;2.55;28.48
25350;BME280;13302;48.796;11.978;2023-02-28T04:02:28;97405.53;;;2.54;28.39
25350;BME280;13302;48.796;11.978;2023-02-28T04:05:15;97407.44;;;2.54;28.27
25350;BME280;13302;48.796;11.978;2023-02-28T04:08:04;97402.28;;;2.52;28.43
25350;BME280;13302;48.796;11.978;2023-02-28T04:10:57;97405.28;;;2.51;28.52
25350;BME280;13302;48.796;11.978;2023-02-28T04:13:47;97403.66;;;2.50;28.56
25350;BME280;13302;48.796;11.978;2023-02-28T04:16:37;97411.84;;;2.50;28.52
25350;BME280;13302;48.796;11.978;2023-02-28T04:19:25;97403.66;;;2.50;28.50
25350;BME280;13302;48.796;11.978;2023-02-28T04:22:12;97401.78;;;2.45;28.64
25350;BME280;13302;48.796;11.978;2023-02-28T04:25:00;97403.19;;;2.43;28.57
25350;BME280;13302;48.796;11.978;2023-02-28T04:27:47;97405.66;;;2.39;28.75
25350;BME280;13302;48.796;11.978;2023-02-28T04:30:34;97402.69;;;2.36;28.80
25350;BME280;13302;48.796;11.978;2023-02-28T04:33:21;97406.25;;;2.36;28.75
25350;BME280;13302;48.796;11.978;2023-02-28T04:36:08;97410.06;;;2.35;28.74
25350;BME280;13302;48.796;11.978;2023-02-28T04:38:56;97412.25;;;2.33;28.75
25350;BME280;13302;48.796;11.978;2023-02-28T04:41:43;97410.91;;;2.30;29.00
25350;BME280;13302;48.796;11.978;2023-02-28T04:44:30;97403.81;;;2.29;28.88
25350;BME280;13302;48.796;11.978;2023-02-28T04:47:17;97413.63;;;2.30;28.82
25350;BME280;13302;48.796;11.978;2023-02-28T04:50:04;97414.97;;;2.33;28.63
25350;BME280;13302;48.796;11.978;2023-02-28T04:52:51;97419.34;;;2.34;28.80
25350;BME280;13302;48.796;11.978;2023-02-28T04:55:38;97415.53;;;2.35;28.78
25350;BME280;13302;48.796;11.978;2023-02-28T04:58:27;97412.78;;;2.35;28.92
25350;BME280;13302;48.796;11.978;2023-02-28T05:04:12;97425.63;;;2.35;28.71
25350;BME280;13302;48.796;11.978;2023-02-28T05:07:01;97419.34;;;2.34;28.88
25350;BME280;13302;48.796;11.978;2023-02-28T05:09:48;97423.69;;;2.35;28.87
25350;BME280;13302;48.796;11.978;2023-02-28T05:12:35;97425.34;;;2.36;28.86
25350;BME280;13302;48.796;11.978;2023-02-28T05:15:22;97433.22;;;2.38;28.82
25350;BME280;13302;48.796;11.978;2023-02-28T05:18:09;97429.41;;;2.39;28.98
25350;BME280;13302;48.796;11.978;2023-02-28T05:20:56;97434.84;;;2.39;28.80
25350;BME280;13302;48.796;11.978;2023-02-28T05:23:43;97433.22;;;2.38;28.80
25350;BME280;13302;48.796;11.978;2023-02-28T05:26:34;97433.78;;;2.35;28.75
25350;BME280;13302;48.796;11.978;2023-02-28T05:29:22;97441.44;;;2.32;28.75
25350;BME280;13302;48.796;11.978;2023-02-28T05:32:10;97429.19;;;2.30;28.64
25350;BME280;13302;48.796;11.978;2023-02-28T05:34:58;97427.00;;;2.32;28.80
25350;BME280;13302;48.796;11.978;2023-02-28T05:37:45;97431.09;;;2.29;28.90
25350;BME280;13302;48.796;11.978;2023-02-28T05:40:32;97429.47;;;2.28;28.93
25350;BME280;13302;48.796;11.978;2023-02-28T05:43:19;97432.19;;;2.28;28.77
25350;BME280;13302;48.796;11.978;2023-02-28T05:46:08;97431.09;;;2.29;28.87
25350;BME280;13302;48.796;11.978;2023-02-28T05:48:55;97428.66;;;2.28;28.79
25350;BME280;13302;48.796;11.978;2023-02-28T05:51:44;97434.13;;;2.28;28.90
25350;BME280;13302;48.796;11.978;2023-02-28T05:54:31;97435.22;;;2.27;28.97
25350;BME280;13302;48.796;11.978;2023-02-28T05:57:18;97438.19;;;2.30;28.85
25350;BME280;13302;48.796;11.978;2023-02-28T06:00:11;97441.75;;;2.31;28.74
25350;BME280;13302;48.796;11.978;2023-02-28T06:02:58;97447.47;;;2.29;28.82
25350;BME280;13302;48.796;11.978;2023-02-28T06:05:48;97446.94;;;2.27;28.77
25350;BME280;13302;48.796;11.978;2023-02-28T06:08:35;97448.84;;;2.27;28.77
25350;BME280;13302;48.796;11.978;2023-02-28T06:11:22;97453.78;;;2.25;28.90
25350;BME280;13302;48.796;11.978;2023-02-28T06:14:16;97444.22;;;2.27;28.83
25350;BME280;13302;48.796;11.978;2023-02-28T06:17:04;97451.00;;;2.30;28.81
25350;BME280;13302;48.796;11.978;2023-02-28T06:19:52;97451.84;;;2.30;28.80
25350;BME280;13302;48.796;11.978;2023-02-28T06:22:39;97453.47;;;2.32;28.88
25350;BME280;13302;48.796;11.978;2023-02-28T06:25:27;97458.09;;;2.31;28.85
25350;BME280;13302;48.796;11.978;2023-02-28T06:28:14;97460.28;;;2.29;28.79
25350;BME280;13302;48.796;11.978;2023-02-28T06:31:07;97458.69;;;2.28;29.03
25350;BME280;13302;48.796;11.978;2023-02-28T06:33:55;97464.66;;;2.30;28.85
25350;BME280;13302;48.796;11.978;2023-02-28T06:36:42;97465.75;;;2.29;28.90
25350;BME280;13302;48.796;11.978;2023-02-28T06:39:30;97466.88;;;2.28;29.04
25350;BME280;13302;48.796;11.978;2023-02-28T06:42:17;97468.47;;;2.29;29.10
25350;BME280;13302;48.796;11.978;2023-02-28T06:45:05;97466.28;;;2.31;28.95
25350;BME280;13302;48.796;11.978;2023-02-28T06:47:56;97472.25;;;2.33;28.89
25350;BME280;13302;48.796;11.978;2023-02-28T06:50:43;97476.13;;;2.32;29.18
25350;BME280;13302;48.796;11.978;2023-02-28T06:53:30;97478.03;;;2.32;29.04
25350;BME280;13302;48.796;11.978;2023-02-28T06:56:17;97473.63;;;2.36;29.08
25350;BME280;13302;48.796;11.978;2023-02-28T06:59:04;97483.97;;;2.39;28.99
25350;BME280;13302;48.796;11.978;2023-02-28T07:01:51;97479.06;;;2.41;29.08
25350;BME280;13302;48.796;11.978;2023-02-28T07:04:38;97483.41;;;2.42;28.88
25350;BME280;13302;48.796;11.978;2023-02-28T07:07:30;97478.75;;;2.42;28.96
25350;BME280;13302;48.796;11.978;2023-02-28T07:10:17;97480.91;;;2.45;29.19
25350;BME280;13302;48.796;11.978;2023-02-28T07:13:07;97483.09;;;2.48;29.13
25350;BME280;13302;48.796;11.978;2023-02-28T07:15:57;97481.72;;;2.51;29.05
25350;BME280;13302;48.796;11.978;2023-02-28T07:18:45;97483.34;;;2.52;28.99
25350;BME280;13302;48.796;11.978;2023-02-28T07:21:32;97485.25;;;2.51;28.93
25350;BME280;13302;48.796;11.978;2023-02-28T07:24:20;97489.06;;;2.50;28.98
25350;BME280;13302;48.796;11.978;2023-02-28T07:27:07;97489.38;;;2.49;28.84
25350;BME280;13302;48.796;11.978;2023-02-28T07:29:54;97488.81;;;2.47;28.83
25350;BME280;13302;48.796;11.978;2023-02-28T07:32:41;97488.00;;;2.46;28.87
25350;BME280;13302;48.796;11.978;2023-02-28T07:35:31;97492.38;;;2.47;28.90
25350;BME280;13302;48.796;11.978;2023-02-28T07:38:18;97496.50;;;2.45;28.98
25350;BME280;13302;48.796;11.978;2023-02-28T07:41:05;97493.47;;;2.46;29.00
25350;BME280;13302;48.796;11.978;2023-02-28T07:43:53;97499.16;;;2.50;28.89
25350;BME280;13302;48.796;11.978;2023-02-28T07:46:40;97495.59;;;2.54;28.91
25350;BME280;13302;48.796;11.978;2023-02-28T07:49:27;97495.84;;;2.58;28.99
25350;BME280;13302;48.796;11.978;2023-02-28T07:52:14;97489.28;;;2.59;28.86
25350;BME280;13302;48.796;11.978;2023-02-28T07:55:01;97493.63;;;2.65;28.89
25350;BME280;13302;48.796;11.978;2023-02-28T07:57:48;97492.47;;;2.71;28.73
25350;BME280;13302;48.796;11.978;2023-02-28T08:00:35;97485.06;;;2.76;28.97
25350;BME280;13302;48.796;11.978;2023-02-28T08:03:23;97481.47;;;2.81;28.84
25350;BME280;13302;48.796;11.978;2023-02-28T08:06:16;97485.03;;;2.82;28.57
25350;BME280;13302;48.796;11.978;2023-02-28T08:09:03;97489.91;;;2.85;28.53
25350;BME280;13302;48.796;11.978;2023-02-28T08:11:50;97486.88;;;2.86;28.60
25350;BME280;13302;48.796;11.978;2023-02-28T08:14:38;97493.69;;;2.89;28.78
25350;BME280;13302;48.796;11.978;2023-02-28T08:17:26;97504.28;;;2.95;28.65
25350;BME280;13302;48.796;11.978;2023-02-28T08:20:13;97504.75;;;3.02;28.41
25350;BME280;13302;48.796;11.978;2023-02-28T08:23:00;97503.13;;;3.06;28.30
25350;BME280;13302;48.796;11.978;2023-02-28T08:25:55;97500.63;;;3.10;28.29
25350;BME280;13302;48.796;11.978;2023-02-28T08:28:42;97497.84;;;3.15;28.27
25350;BME280;13302;48.796;11.978;2023-02-28T08:31:29;97504.91;;;3.21;28.29
25350;BME280;13302;48.796;11.978;2023-02-28T08:34:17;97501.84;;;3.28;28.38
25350;BME280;13302;48.796;11.978;2023-02-28T08:37:03;97509.72;;;3.34;28.11
25350;BME280;13302;48.796;11.978;2023-02-28T08:39:51;97514.31;;;3.39;28.37
25350;BME280;13302;48.796;11.978;2023-02-28T08:42:42;97516.47;;;3.42;28.08
25350;BME280;13302;48.796;11.978;2023-02-28T08:45:29;97509.03;;;3.47;27.94
25350;BME280;13302;48.796;11.978;2023-02-28T08:48:16;97518.84;;;3.48;28.07
25350;BME280;13302;48.796;11.978;2023-02-28T08:51:08;97510.94;;;3.47;28.01
25350;BME280;13302;48.796;11.978;2023-02-28T08:53:59;97514.50;;;3.47;27.85
25350;BME280;13302;48.796;11.978;2023-02-28T08:56:46;97510.38;;;3.50;27.99
25350;BME280;13302;48.796;11.978;2023-02-28T08:59:34;97514.44;;;3.52;27.98
25350;BME280;13302;48.796;11.978;2023-02-28T09:02:21;97519.84;;;3.57;27.95
25350;BME280;13302;48.796;11.978;2023-02-28T09:05:08;97517.34;;;3.61;27.83
25350;BME280;13302;48.796;11.978;2023-02-28T09:07:55;97525.78;;;3.64;27.63
25350;BME280;13302;48.796;11.978;2023-02-28T09:10:42;97521.94;;;3.65;27.67
25350;BME280;13302;48.796;11.978;2023-02-28T09:13:29;97516.19;;;3.67;27.62
25350;BME280;13302;48.796;11.978;2023-02-28T09:16:17;97526.53;;;3.70;27.76
25350;BME280;13302;48.796;11.978;2023-02-28T09:19:04;97525.13;;;3.73;27.51
25350;BME280;13302;48.796;11.978;2023-02-28T09:21:51;97520.50;;;3.73;27.61
25350;BME280;13302;48.796;11.978;2023-02-28T09:24:39;97528.91;;;3.77;27.59
25350;BME280;13302;48.796;11.978;2023-02-28T09:27:27;97522.88;;;3.80;27.44
25350;BME280;13302;48.796;11.978;2023-02-28T09:30:14;97526.94;;;3.82;27.63
25350;BME280;13302;48.796;11.978;2023-02-28T09:33:01;97527.72;;;3.88;27.42
25350;BME280;13302;48.796;11.978;2023-02-28T09:36:00;97532.31;;;3.92;27.55
25350;BME280;13302;48.796;11.978;2023-02-28T09:38:49;97532.53;;;3.96;27.32
25350;BME280;13302;48.796;11.978;2023-02-28T09:41:41;97537.72;;;3.97;27.38
25350;BME280;13302;48.796;11.978;2023-02-28T09:44:40;97523.47;;;4.00;27.16
25350;BME280;13302;48.796;11.978;2023-02-28T09:47:36;97536.00;;;4.01;27.21
25350;BME280;13302;48.796;11.978;2023-02-28T09:53:34;97529.97;;;4.04;26.99
25350;BME280;13302;48.796;11.978;2023-02-28T09:56:29;97531.03;;;4.08;27.42
25350;BME280;13302;48.796;11.978;2023-02-28T10:03:00;97519.13;;;4.18;27.19
25350;BME280;13302;48.796;11.978;2023-02-28T10:05:58;97533.03;;;4.22;27.15
25350;BME280;13302;48.796;11.978;2023-02-28T10:09:00;97534.06;;;4.26;27.05
25350;BME280;13302;48.796;11.978;2023-02-28T10:11:50;97538.91;;;4.34;27.10
25350;BME280;13302;48.796;11.978;2023-02-28T10:14:45;97543.72;;;4.42;27.15
25350;BME280;13302;48.796;11.978;2023-02-28T10:17:39;97539.50;;;4.49;26.87
25350;BME280;13302;48.796;11.978;2023-02-28T10:20:42;97539.13;;;4.56;26.83
25350;BME280;13302;48.796;11.978;2023-02-28T10:23:37;97534.19;;;4.58;26.93
25350;BME280;13302;48.796;11.978;2023-02-28T10:26:26;97531.34;;;4.63;26.70
25350;BME280;13302;48.796;11.978;2023-02-28T10:29:16;97542.25;;;4.68;26.55
25350;BME280;13302;48.796;11.978;2023-02-28T10:32:03;97542.78;;;4.70;26.74
25350;BME280;13302;48.796;11.978;2023-02-28T10:34:53;97534.00;;;4.73;26.76
25350;BME280;13302;48.796;11.978;2023-02-28T10:37:47;97542.13;;;4.78;26.60
25350;BME280;13302;48.796;11.978;2023-02-28T10:40:35;97540.44;;;4.82;26.66
25350;BME280;13302;48.796;11.978;2023-02-28T10:43:23;97547.75;;;4.87;26.69
25350;BME280;13302;48.796;11.978;2023-02-28T10:46:15;97547.38;;;4.93;26.60
25350;BME280;13302;48.796;11.978;2023-02-28T10:49:24;97546.78;;;4.96;26.56
25350;BME280;13302;48.796;11.978;2023-02-28T10:52:12;97549.44;;;5.01;26.56
25350;BME280;13302;48.796;11.978;2023-02-28T10:55:25;97551.56;;;5.04;26.60
25350;BME280;13302;48.796;11.978;2023-02-28T10:58:26;97536.47;;;5.07;26.55
25350;BME280;13302;48.796;11.978;2023-02-28T11:01:20;97544.91;;;5.11;26.71
25350;BME280;13302;48.796;11.978;2023-02-28T11:07:17;97528.81;;;5.23;26.85
25350;BME280;13302;48.796;11.978;2023-02-28T11:10:20;97539.91;;;5.31;26.89
25350;BME280;13302;48.796;11.978;2023-02-28T11:13:19;97535.38;;;5.40;26.78
25350;BME280;13302;48.796;11.978;2023-02-28T11:16:11;97529.97;;;5.49;26.73
25350;BME280;13302;48.796;11.978;2023-02-28T11:18:59;97529.81;;;5.59;26.60
25350;BME280;13302;48.796;11.978;2023-02-28T11:21:59;97532.13;;;5.66;26.71
25350;BME280;13302;48.796;11.978;2023-02-28T11:24:52;97532.47;;;5.78;26.39
25350;BME280;13302;48.796;11.978;2023-02-28T11:27:44;97530.16;;;5.85;26.33
25350;BME280;13302;48.796;11.978;2023-02-28T11:30:38;97528.09;;;5.90;26.30
25350;BME280;13302;48.796;11.978;2023-02-28T11:36:31;97521.00;;;6.03;26.22
25350;BME280;13302;48.796;11.978;2023-02-28T11:39:19;97518.97;;;6.09;26.03
25350;BME280;13302;48.796;11.978;2023-02-28T11:42:38;97524.69;;;6.12;25.94
25350;BME280;13302;48.796;11.978;2023-02-28T11:45:44;97517.47;;;6.16;25.89
25350;BME280;13302;48.796;11.978;2023-02-28T12:03:52;97531.00;;;6.26;25.72
25350;BME280;13302;48.796;11.978;2023-02-28T12:06:45;97525.38;;;6.31;25.44
25350;BME280;13302;48.796;11.978;2023-02-28T12:10:02;97513.28;;;6.32;25.53
25350;BME280;13302;48.796;11.978;2023-02-28T12:13:05;97510.72;;;6.36;25.46
25350;BME280;13302;48.796;11.978;2023-02-28T12:22:28;97513.63;;;6.53;25.56
25350;BME280;13302;48.796;11.978;2023-02-28T12:25:44;97502.53;;;6.58;25.58
25350;BME280;13302;48.796;11.978;2023-02-28T12:28:42;97498.34;;;6.61;25.28
25350;BME280;13302;48.796;11.978;2023-02-28T12:31:34;97494.31;;;6.58;25.57
25350;BME280;13302;48.796;11.978;2023-02-28T12:34:28;97501.44;;;6.59;25.48
25350;BME280;13302;48.796;11.978;2023-02-28T12:37:28;97498.53;;;6.64;25.79
25350;BME280;13302;48.796;11.978;2023-02-28T12:40:20;97499.25;;;6.70;25.73
25350;BME280;13302;48.796;11.978;2023-02-28T12:43:09;97482.31;;;6.76;25.35
25350;BME280;13302;48.796;11.978;2023-02-28T12:46:06;97485.13;;;6.85;25.33
25350;BME280;13302;48.796;11.978;2023-02-28T12:48:58;97483.09;;;6.90;24.98
25350;BME280;13302;48.796;11.978;2023-02-28T12:51:47;97482.16;;;6.95;25.19
25350;BME280;13302;48.796;11.978;2023-02-28T12:55:05;97487.34;;;6.97;25.33
25350;BME280;13302;48.796;11.978;2023-02-28T12:58:05;97494.97;;;7.00;25.18
25350;BME280;13302;48.796;11.978;2023-02-28T13:10:04;97476.72;;;7.04;24.75
25350;BME280;13302;48.796;11.978;2023-02-28T13:12:54;97481.41;;;7.03;24.88
25350;BME280;13302;48.796;11.978;2023-02-28T13:15:57;97482.34;;;6.99;24.99
25350;BME280;13302;48.796;11.978;2023-02-28T13:18:46;97476.72;;;7.04;25.12
25350;BME280;13302;48.796;11.978;2023-02-28T13:21:41;97467.84;;;7.07;25.32
25350;BME280;13302;48.796;11.978;2023-02-28T13:24:45;97477.25;;;7.14;25.45
25350;BME280;13302;48.796;11.978;2023-02-28T13:27:40;97472.94;;;7.22;25.11
25350;BME280;13302;48.796;11.978;2023-02-28T13:36:36;97470.41;;;7.34;25.00
25350;BME280;13302;48.796;11.978;2023-02-28T13:45:23;97468.38;;;7.40;25.09
25350;BME280;13302;48.796;11.978;2023-02-28T13:48:17;97473.41;;;7.38;25.28
25350;BME280;13302;48.796;11.978;2023-02-28T13:51:37;97470.50;;;7.43;25.10
25350;BME280;13302;48.796;11.978;2023-02-28T13:54:55;97475.06;;;7.47;24.74
25350;BME280;13302;48.796;11.978;2023-02-28T13:58:03;97475.41;;;7.46;25.00
25350;BME280;13302;48.796;11.978;2023-02-28T14:01:27;97467.44;;;7.44;24.96
25350;BME280;13302;48.796;11.978;2023-02-28T14:04:45;97468.56;;;7.43;24.89
25350;BME280;13302;48.796;11.978;2023-02-28T14:07:45;97476.94;;;7.38;24.73
25350;BME280;13302;48.796;11.978;2023-02-28T14:10:48;97465.56;;;7.31;24.93
25350;BME280;13302;48.796;11.978;2023-02-28T14:13:42;97470.88;;;7.27;24.85
25350;BME280;13302;48.796;11.978;2023-02-28T14:16:43;97474.75;;;7.26;25.00
25350;BME280;13302;48.796;11.978;2023-02-28T14:19:32;97470.88;;;7.27;24.81
25350;BME280;13302;48.796;11.978;2023-02-28T14:22:52;97468.44;;;7.26;25.03
25350;BME280;13302;48.796;11.978;2023-02-28T14:26:01;97463.41;;;7.19;25.16
25350;BME280;13302;48.796;11.978;2023-02-28T14:29:25;97473.88;;;7.17;25.05
25350;BME280;13302;48.796;11.978;2023-02-28T14:32:28;97470.00;;;7.18;25.02
25350;BME280;13302;48.796;11.978;2023-02-28T14:38:25;97466.16;;;7.19;24.95
25350;BME280;13302;48.796;11.978;2023-02-28T14:41:19;97465.84;;;7.21;24.91
25350;BME280;13302;48.796;11.978;2023-02-28T14:47:03;97475.69;;;7.22;25.13
25350;BME280;13302;48.796;11.978;2023-02-28T14:49:53;97476.84;;;7.21;24.84
25350;BME280;13302;48.796;11.978;2023-02-28T14:52:43;97476.31;;;7.19;24.89
25350;BME280;13302;48.796;11.978;2023-02-28T14:55:35;97481.00;;;7.18;24.91
25350;BME280;13302;48.796;11.978;2023-02-28T14:58:29;97474.69;;;7.18;25.12
25350;BME280;13302;48.796;11.978;2023-02-28T15:01:20;97475.50;;;7.18;25.06
25350;BME280;13302;48.796;11.978;2023-02-28T15:04:21;97477.97;;;7.20;25.01
25350;BME280;13302;48.796;11.978;2023-02-28T15:07:14;97476.84;;;7.21;25.02
25350;BME280;13302;48.796;11.978;2023-02-28T15:10:22;97470.53;;;7.20;24.88
25350;BME280;13302;48.796;11.978;2023-02-28T15:13:14;97479.38;;;7.17;25.03
25350;BME280;13302;48.796;11.978;2023-02-28T15:16:03;97473.41;;;7.15;25.00
25350;BME280;13302;48.796;11.978;2023-02-28T15:18:56;97477.09;;;7.11;24.83
25350;BME280;13302;48.796;11.978;2023-02-28T15:21:48;97473.03;;;7.08;25.00
25350;BME280;13302;48.796;11.978;2023-02-28T15:24:40;97479.47;;;7.04;24.79
25350;BME280;13302;48.796;11.978;2023-02-28T15:27:31;97482.03;;;7.00;24.89
25350;BME280;13302;48.796;11.978;2023-02-28T15:30:28;97487.34;;;6.97;25.00
25350;BME280;13302;48.796;11.978;2023-02-28T15:38:57;97486.66;;;6.91;25.07
25350;BME280;13302;48.796;11.978;2023-02-28T15:42:19;97487.88;;;6.85;25.21
25350;BME280;13302;48.796;11.978;2023-02-28T15:45:48;97493.72;;;6.83;25.15
25350;BME280;13302;48.796;11.978;2023-02-28T15:51:35;97486.41;;;6.79;25.20
25350;BME280;13302;48.796;11.978;2023-02-28T15:54:27;97482.31;;;6.76;25.24
25350;BME280;13302;48.796;11.978;2023-02-28T15:57:24;97490.06;;;6.74;25.30
25350;BME280;13302;48.796;11.978;2023-02-28T16:00:15;97491.53;;;6.72;25.24
25350;BME280;13302;48.796;11.978;2023-02-28T16:03:22;97490.81;;;6.66;25.28
25350;BME280;13302;48.796;11.978;2023-02-28T16:09:11;97483.81;;;6.60;25.28
25350;BME280;13302;48.796;11.978;2023-02-28T16:12:02;97492.19;;;6.55;25.26
25350;BME280;13302;48.796;11.978;2023-02-28T16:14:52;97490.56;;;6.54;25.25
25350;BME280;13302;48.796;11.978;2023-02-28T16:17:39;97490.84;;;6.53;25.38
25350;BME280;13302;48.796;11.978;2023-02-28T16:20:29;97490.66;;;6.49;25.46
25350;BME280;13302;48.796;11.978;2023-02-28T16:23:17;97488.53;;;6.46;25.56
25350;BME280;13302;48.796;11.978;2023-02-28T16:26:05;97495.97;;;6.45;25.56
25350;BME280;13302;48.796;11.978;2023-02-28T16:28:53;97492.41;;;6.45;25.50
25350;BME280;13302;48.796;11.978;2023-02-28T16:31:40;97494.94;;;6.41;25.60
25350;BME280;13302;48.796;11.978;2023-02-28T16:34:27;97503.19;;;6.41;25.54
25350;BME280;13302;48.796;11.978;2023-02-28T16:37:17;97501.88;;;6.39;25.68
25350;BME280;13302;48.796;11.978;2023-02-28T16:40:04;97503.81;;;6.38;25.57
25350;BME280;13302;48.796;11.978;2023-02-28T16:42:53;97509.31;;;6.38;25.66
25350;BME280;13302;48.796;11.978;2023-02-28T16:45:42;97506.22;;;6.40;25.62